読者です 読者をやめる 読者になる 読者になる

今朝の羽田(2017/03/22)

ANA968/JA835A(B788)

ANA880/JA877A(B789)

ANA822/JA619A(B763) with winglet

JAL34/JA743J(B77W)

ANA8554/JA809A(B788)

ANA844/JA884A(B789)

QFA25/VH-OEH(B744)

JAL36/JA711J(B772)

SIA636/9V-SWV(B77W)

ANA850/JA888A(B789)

*APJ1029/JA801P(A320)

ANA856/JA886A(B789)

ANA204/JA790A(B77W)

*AAR177/HL8278(A321)

THA682/HS-TGG(B744)

*KAL720/HL8221(B739)

JAL70/JA829J(B788)

*HKE625/B-LCD(A320)

BAW7/G-STBE(B77W)

ANA8558/JA602F(B763)

RJTT 212000Z 32019G35KT 9999 FEW030 07/M03 Q1006 TEMPO 34034G45KT

RJTT 212100Z 32021G32KT 9999 FEW030 07/M05 Q1008 TEMPO 34034G45KT

RJTT 212200Z 32020G31KT 9999 FEW030 07/M04 Q1009 TEMPO 34030G42KT

今朝の羽田は晴れて強風です。